sensor_id;sensor_type;location;lat;lon;timestamp;pressure;altitude;pressure_sealevel;temperature;humidity
6389;BME280;3227;42.654;23.360;2023-06-04T00:02:14;94584.28;;;17.86;100.00
6389;BME280;3227;42.654;23.360;2023-06-04T00:04:41;94588.63;;;17.85;100.00
6389;BME280;3227;42.654;23.360;2023-06-04T00:07:08;94578.22;;;17.87;100.00
6389;BME280;3227;42.654;23.360;2023-06-04T00:09:34;94587.41;;;17.97;99.84
6389;BME280;3227;42.654;23.360;2023-06-04T00:12:03;94567.72;;;17.90;98.82
6389;BME280;3227;42.654;23.360;2023-06-04T00:14:30;94586.41;;;18.03;98.91
6389;BME280;3227;42.654;23.360;2023-06-04T00:16:57;94582.06;;;18.03;98.94
6389;BME280;3227;42.654;23.360;2023-06-04T00:19:23;94582.84;;;18.05;98.24
6389;BME280;3227;42.654;23.360;2023-06-04T00:21:50;94586.34;;;18.04;97.81
6389;BME280;3227;42.654;23.360;2023-06-04T00:24:17;94587.50;;;17.94;98.04
6389;BME280;3227;42.654;23.360;2023-06-04T00:26:44;94576.50;;;17.86;98.58
6389;BME280;3227;42.654;23.360;2023-06-04T00:29:12;94528.81;;;17.59;98.70
6389;BME280;3227;42.654;23.360;2023-06-04T00:31:39;94572.00;;;17.93;98.04
6389;BME280;3227;42.654;23.360;2023-06-04T00:34:05;94573.03;;;17.87;97.74
6389;BME280;3227;42.654;23.360;2023-06-04T00:36:32;94572.22;;;17.85;97.85
6389;BME280;3227;42.654;23.360;2023-06-04T00:38:59;94562.97;;;17.75;98.92
6389;BME280;3227;42.654;23.360;2023-06-04T00:41:26;94561.47;;;17.66;99.14
6389;BME280;3227;42.654;23.360;2023-06-04T00:43:52;94567.31;;;17.74;99.36
6389;BME280;3227;42.654;23.360;2023-06-04T00:46:24;94569.94;;;17.73;99.40
6389;BME280;3227;42.654;23.360;2023-06-04T00:48:52;94570.72;;;17.76;100.00
6389;BME280;3227;42.654;23.360;2023-06-04T00:51:19;94572.50;;;17.74;100.00
6389;BME280;3227;42.654;23.360;2023-06-04T00:53:47;94572.69;;;17.67;100.00
6389;BME280;3227;42.654;23.360;2023-06-04T00:56:14;94571.06;;;17.63;100.00
6389;BME280;3227;42.654;23.360;2023-06-04T00:58:41;94569.47;;;17.57;100.00
6389;BME280;3227;42.654;23.360;2023-06-04T01:01:15;94570.13;;;17.65;100.00
6389;BME280;3227;42.654;23.360;2023-06-04T01:03:47;94480.91;;;17.10;100.00
6389;BME280;3227;42.654;23.360;2023-06-04T01:06:21;94571.84;;;17.66;100.00
6389;BME280;3227;42.654;23.360;2023-06-04T01:08:50;94574.47;;;17.65;100.00
6389;BME280;3227;42.654;23.360;2023-06-04T01:11:30;94570.81;;;17.72;100.00
6389;BME280;3227;42.654;23.360;2023-06-04T01:13:57;94575.97;;;17.73;100.00
6389;BME280;3227;42.654;23.360;2023-06-04T01:16:25;94564.66;;;17.43;100.00
6389;BME280;3227;42.654;23.360;2023-06-04T01:18:56;94556.25;;;17.34;100.00
6389;BME280;3227;42.654;23.360;2023-06-04T01:21:29;94564.63;;;17.45;100.00
6389;BME280;3227;42.654;23.360;2023-06-04T01:24:00;94562.69;;;17.53;100.00
6389;BME280;3227;42.654;23.360;2023-06-04T01:26:29;94572.09;;;17.56;100.00
6389;BME280;3227;42.654;23.360;2023-06-04T01:28:57;94572.03;;;17.59;100.00
6389;BME280;3227;42.654;23.360;2023-06-04T01:31:24;94552.00;;;17.31;100.00
6389;BME280;3227;42.654;23.360;2023-06-04T01:33:52;94575.03;;;17.42;100.00
6389;BME280;3227;42.654;23.360;2023-06-04T01:36:20;94582.94;;;17.37;100.00
6389;BME280;3227;42.654;23.360;2023-06-04T01:38:48;94590.06;;;17.29;100.00
6389;BME280;3227;42.654;23.360;2023-06-04T01:41:15;94585.97;;;17.21;100.00
6389;BME280;3227;42.654;23.360;2023-06-04T01:43:42;94589.34;;;17.23;100.00
6389;BME280;3227;42.654;23.360;2023-06-04T01:46:09;94585.75;;;17.28;100.00
6389;BME280;3227;42.654;23.360;2023-06-04T01:48:36;94585.75;;;17.28;100.00
6389;BME280;3227;42.654;23.360;2023-06-04T01:51:04;94588.34;;;17.28;100.00
6389;BME280;3227;42.654;23.360;2023-06-04T01:53:33;94592.53;;;17.34;100.00
6389;BME280;3227;42.654;23.360;2023-06-04T01:56:00;94587.34;;;17.34;100.00
6389;BME280;3227;42.654;23.360;2023-06-04T01:58:27;94597.72;;;17.32;100.00
6389;BME280;3227;42.654;23.360;2023-06-04T02:00:54;94594.63;;;17.20;100.00
6389;BME280;3227;42.654;23.360;2023-06-04T02:03:21;94599.91;;;17.13;100.00
6389;BME280;3227;42.654;23.360;2023-06-04T02:05:48;94585.41;;;17.06;100.00
6389;BME280;3227;42.654;23.360;2023-06-04T02:08:15;94598.19;;;17.14;100.00
6389;BME280;3227;42.654;23.360;2023-06-04T02:10:46;94595.69;;;17.11;100.00
6389;BME280;3227;42.654;23.360;2023-06-04T02:13:13;94591.09;;;16.87;100.00
6389;BME280;3227;42.654;23.360;2023-06-04T02:15:40;94571.88;;;16.57;100.00
6389;BME280;3227;42.654;23.360;2023-06-04T02:18:14;94605.19;;;16.73;100.00
6389;BME280;3227;42.654;23.360;2023-06-04T02:20:43;94604.28;;;16.74;100.00
6389;BME280;3227;42.654;23.360;2023-06-04T02:23:10;94610.97;;;16.85;100.00
6389;BME280;3227;42.654;23.360;2023-06-04T02:25:37;94605.75;;;16.86;100.00
6389;BME280;3227;42.654;23.360;2023-06-04T02:28:06;94605.69;;;16.89;100.00
6389;BME280;3227;42.654;23.360;2023-06-04T02:30:33;94622.69;;;16.99;100.00
6389;BME280;3227;42.654;23.360;2023-06-04T02:33:00;94619.22;;;17.00;100.00
6389;BME280;3227;42.654;23.360;2023-06-04T02:35:27;94627.00;;;17.00;100.00
6389;BME280;3227;42.654;23.360;2023-06-04T02:37:54;94627.03;;;16.99;100.00
6389;BME280;3227;42.654;23.360;2023-06-04T02:40:22;94620.22;;;16.96;100.00
6389;BME280;3227;42.654;23.360;2023-06-04T02:42:48;94631.16;;;17.06;100.00
6389;BME280;3227;42.654;23.360;2023-06-04T02:45:17;94632.16;;;17.02;100.00
6389;BME280;3227;42.654;23.360;2023-06-04T02:47:44;94627.13;;;16.96;100.00
6389;BME280;3227;42.654;23.360;2023-06-04T02:50:12;94628.78;;;16.97;100.00
6389;BME280;3227;42.654;23.360;2023-06-04T02:52:39;94637.28;;;17.03;100.00
6389;BME280;3227;42.654;23.360;2023-06-04T02:55:26;94635.47;;;17.07;100.00
6389;BME280;3227;42.654;23.360;2023-06-04T02:57:53;94642.34;;;17.08;100.00
6389;BME280;3227;42.654;23.360;2023-06-04T03:00:21;94643.94;;;17.13;100.00
6389;BME280;3227;42.654;23.360;2023-06-04T03:02:48;94636.97;;;17.17;100.00
6389;BME280;3227;42.654;23.360;2023-06-04T03:05:16;94639.38;;;17.23;100.00
6389;BME280;3227;42.654;23.360;2023-06-04T03:07:44;94640.28;;;17.22;100.00
6389;BME280;3227;42.654;23.360;2023-06-04T03:10:13;94650.56;;;17.25;100.00
6389;BME280;3227;42.654;23.360;2023-06-04T03:12:40;94648.78;;;17.29;100.00
6389;BME280;3227;42.654;23.360;2023-06-04T03:15:08;94638.34;;;17.30;100.00
6389;BME280;3227;42.654;23.360;2023-06-04T03:17:36;94615.31;;;17.20;100.00
6389;BME280;3227;42.654;23.360;2023-06-04T03:20:04;94645.00;;;17.40;100.00
6389;BME280;3227;42.654;23.360;2023-06-04T03:22:32;94641.59;;;17.38;100.00
6389;BME280;3227;42.654;23.360;2023-06-04T03:25:01;94644.28;;;17.35;100.00
6389;BME280;3227;42.654;23.360;2023-06-04T03:27:28;94645.25;;;17.31;100.00
6389;BME280;3227;42.654;23.360;2023-06-04T03:29:55;94649.63;;;17.29;100.00
6389;BME280;3227;42.654;23.360;2023-06-04T03:32:21;94647.84;;;17.30;100.00
6389;BME280;3227;42.654;23.360;2023-06-04T03:34:50;94653.81;;;17.33;100.00
6389;BME280;3227;42.654;23.360;2023-06-04T03:37:16;94659.00;;;17.33;100.00
6389;BME280;3227;42.654;23.360;2023-06-04T03:39:43;94666.72;;;17.36;100.00
6389;BME280;3227;42.654;23.360;2023-06-04T03:42:10;94660.75;;;17.33;100.00
6389;BME280;3227;42.654;23.360;2023-06-04T03:44:37;94670.41;;;17.26;100.00
6389;BME280;3227;42.654;23.360;2023-06-04T03:47:04;94655.09;;;17.17;100.00
6389;BME280;3227;42.654;23.360;2023-06-04T03:49:30;94665.47;;;17.16;100.00
6389;BME280;3227;42.654;23.360;2023-06-04T03:51:58;94673.59;;;17.00;100.00
6389;BME280;3227;42.654;23.360;2023-06-04T03:54:25;94671.75;;;17.05;100.00
6389;BME280;3227;42.654;23.360;2023-06-04T03:56:52;94667.47;;;17.04;100.00
6389;BME280;3227;42.654;23.360;2023-06-04T03:59:19;94678.50;;;17.13;100.00
6389;BME280;3227;42.654;23.360;2023-06-04T04:01:46;94659.53;;;17.12;100.00
6389;BME280;3227;42.654;23.360;2023-06-04T04:04:13;94673.22;;;17.17;100.00
6389;BME280;3227;42.654;23.360;2023-06-04T04:06:39;94674.16;;;17.13;100.00
6389;BME280;3227;42.654;23.360;2023-06-04T04:09:08;94672.50;;;17.10;100.00
6389;BME280;3227;42.654;23.360;2023-06-04T04:11:34;94667.53;;;17.01;100.00
6389;BME280;3227;42.654;23.360;2023-06-04T04:14:01;94682.16;;;17.04;100.00
6389;BME280;3227;42.654;23.360;2023-06-04T04:16:28;94686.59;;;16.97;100.00
6389;BME280;3227;42.654;23.360;2023-06-04T04:18:55;94686.66;;;16.96;100.00
6389;BME280;3227;42.654;23.360;2023-06-04T04:21:22;94692.72;;;16.95;100.00
6389;BME280;3227;42.654;23.360;2023-06-04T04:23:49;94680.78;;;16.88;100.00
6389;BME280;3227;42.654;23.360;2023-06-04T04:26:19;94687.44;;;16.98;100.00
6389;BME280;3227;42.654;23.360;2023-06-04T04:28:45;94683.88;;;17.03;100.00
6389;BME280;3227;42.654;23.360;2023-06-04T04:31:12;94695.63;;;17.18;100.00
6389;BME280;3227;42.654;23.360;2023-06-04T04:33:40;94695.56;;;17.21;100.00
6389;BME280;3227;42.654;23.360;2023-06-04T04:36:07;94695.59;;;17.20;100.00
6389;BME280;3227;42.654;23.360;2023-06-04T04:38:37;94695.50;;;17.23;100.00
6389;BME280;3227;42.654;23.360;2023-06-04T04:41:05;94692.00;;;17.25;100.00
6389;BME280;3227;42.654;23.360;2023-06-04T04:43:35;94692.00;;;17.25;100.00
6389;BME280;3227;42.654;23.360;2023-06-04T04:46:03;94685.22;;;17.21;100.00
6389;BME280;3227;42.654;23.360;2023-06-04T04:48:30;94685.06;;;17.27;100.00
6389;BME280;3227;42.654;23.360;2023-06-04T04:50:56;94694.38;;;17.34;100.00
6389;BME280;3227;42.654;23.360;2023-06-04T04:53:23;94693.28;;;17.44;100.00
6389;BME280;3227;42.654;23.360;2023-06-04T04:55:50;94687.16;;;17.47;100.00
6389;BME280;3227;42.654;23.360;2023-06-04T04:58:17;94694.50;;;17.67;100.00
6389;BME280;3227;42.654;23.360;2023-06-04T05:00:45;94694.09;;;17.82;100.00
6389;BME280;3227;42.654;23.360;2023-06-04T05:03:13;94696.50;;;17.90;100.00
6389;BME280;3227;42.654;23.360;2023-06-04T05:05:40;94698.88;;;17.97;100.00
6389;BME280;3227;42.654;23.360;2023-06-04T05:08:06;94696.19;;;18.02;100.00
6389;BME280;3227;42.654;23.360;2023-06-04T05:10:33;94696.88;;;18.08;100.00
6389;BME280;3227;42.654;23.360;2023-06-04T05:13:01;94699.69;;;18.01;100.00
6389;BME280;3227;42.654;23.360;2023-06-04T05:15:40;94698.81;;;18.00;100.00
6389;BME280;3227;42.654;23.360;2023-06-04T05:18:09;94700.94;;;17.86;100.00
6389;BME280;3227;42.654;23.360;2023-06-04T05:20:35;94706.84;;;17.91;100.00
6389;BME280;3227;42.654;23.360;2023-06-04T05:23:03;94711.50;;;17.78;100.00
6389;BME280;3227;42.654;23.360;2023-06-04T05:25:30;94713.22;;;17.78;100.00
6389;BME280;3227;42.654;23.360;2023-06-04T05:27:57;94710.53;;;17.81;100.00
6389;BME280;3227;42.654;23.360;2023-06-04T05:30:24;94706.44;;;17.72;100.00
6389;BME280;3227;42.654;23.360;2023-06-04T05:32:51;94704.63;;;17.76;100.00
6389;BME280;3227;42.654;23.360;2023-06-04T05:35:20;94712.19;;;17.85;100.00
6389;BME280;3227;42.654;23.360;2023-06-04T05:37:47;94718.09;;;17.90;100.00
6389;BME280;3227;42.654;23.360;2023-06-04T05:40:19;94718.03;;;17.93;100.00
6389;BME280;3227;42.654;23.360;2023-06-04T05:42:46;94724.81;;;17.97;100.00
6389;BME280;3227;42.654;23.360;2023-06-04T05:45:13;94719.63;;;17.97;99.48
6389;BME280;3227;42.654;23.360;2023-06-04T05:47:40;94720.53;;;17.96;98.79
6389;BME280;3227;42.654;23.360;2023-06-04T05:50:07;94725.72;;;17.96;98.08
6389;BME280;3227;42.654;23.360;2023-06-04T05:52:36;94726.53;;;17.98;97.46
6389;BME280;3227;42.654;23.360;2023-06-04T05:55:03;94735.88;;;18.04;96.64
6389;BME280;3227;42.654;23.360;2023-06-04T05:57:32;94730.69;;;18.04;96.90
6389;BME280;3227;42.654;23.360;2023-06-04T05:59:59;94734.28;;;18.00;96.64
6389;BME280;3227;42.654;23.360;2023-06-04T06:02:26;94736.59;;;18.10;96.99
6389;BME280;3227;42.654;23.360;2023-06-04T06:04:58;94736.47;;;18.15;95.28
6389;BME280;3227;42.654;23.360;2023-06-04T06:07:25;94745.13;;;18.14;95.12
6389;BME280;3227;42.654;23.360;2023-06-04T06:09:53;94749.38;;;18.18;95.11
6389;BME280;3227;42.654;23.360;2023-06-04T06:12:20;94742.66;;;18.09;95.02
6389;BME280;3227;42.654;23.360;2023-06-04T06:14:46;94751.38;;;18.07;95.24
6389;BME280;3227;42.654;23.360;2023-06-04T06:17:13;94754.75;;;18.10;94.74
6389;BME280;3227;42.654;23.360;2023-06-04T06:19:40;94760.03;;;18.06;94.54
6389;BME280;3227;42.654;23.360;2023-06-04T06:22:07;94648.94;;;17.57;94.69
6389;BME280;3227;42.654;23.360;2023-06-04T06:24:34;94762.38;;;18.16;94.15
6389;BME280;3227;42.654;23.360;2023-06-04T06:27:03;94750.13;;;18.21;93.61
6389;BME280;3227;42.654;23.360;2023-06-04T06:29:30;94742.50;;;18.15;93.90
6389;BME280;3227;42.654;23.360;2023-06-04T06:31:57;94748.50;;;18.17;93.98
6389;BME280;3227;42.654;23.360;2023-06-04T06:34:24;94754.75;;;18.10;93.50
6389;BME280;3227;42.654;23.360;2023-06-04T06:36:51;94757.34;;;18.10;93.36
6389;BME280;3227;42.654;23.360;2023-06-04T06:39:18;94756.94;;;18.25;92.27
6389;BME280;3227;42.654;23.360;2023-06-04T06:41:45;94755.25;;;18.24;91.77
6389;BME280;3227;42.654;23.360;2023-06-04T06:44:14;94748.28;;;18.27;92.94
6389;BME280;3227;42.654;23.360;2023-06-04T06:46:41;94755.69;;;18.40;92.32
6389;BME280;3227;42.654;23.360;2023-06-04T06:49:08;94751.91;;;18.52;91.77
6389;BME280;3227;42.654;23.360;2023-06-04T06:51:34;94754.31;;;18.61;91.13
6389;BME280;3227;42.654;23.360;2023-06-04T06:54:01;94765.88;;;18.46;92.05
6389;BME280;3227;42.654;23.360;2023-06-04T06:56:28;94758.25;;;18.42;92.06
6389;BME280;3227;42.654;23.360;2023-06-04T06:58:55;94759.56;;;18.24;92.79
6389;BME280;3227;42.654;23.360;2023-06-04T07:01:24;94767.94;;;18.35;93.66
6389;BME280;3227;42.654;23.360;2023-06-04T07:03:50;94765.94;;;18.45;92.37
6389;BME280;3227;42.654;23.360;2023-06-04T07:06:17;94768.94;;;18.62;91.35
6389;BME280;3227;42.654;23.360;2023-06-04T07:08:44;94746.63;;;18.55;90.09
6389;BME280;3227;42.654;23.360;2023-06-04T07:11:13;94775.44;;;18.78;89.87
6389;BME280;3227;42.654;23.360;2023-06-04T07:13:42;94779.25;;;18.65;90.41
6389;BME280;3227;42.654;23.360;2023-06-04T07:16:09;94784.28;;;18.71;90.09
6389;BME280;3227;42.654;23.360;2023-06-04T07:18:37;94789.69;;;18.94;90.08
6389;BME280;3227;42.654;23.360;2023-06-04T07:21:03;94781.38;;;19.13;88.48
6389;BME280;3227;42.654;23.360;2023-06-04T07:23:30;94784.75;;;19.16;88.29
6389;BME280;3227;42.654;23.360;2023-06-04T07:25:57;94800.91;;;19.26;88.20
6389;BME280;3227;42.654;23.360;2023-06-04T07:28:24;94791.31;;;19.28;88.24
6389;BME280;3227;42.654;23.360;2023-06-04T07:30:51;94786.13;;;19.28;89.03
6389;BME280;3227;42.654;23.360;2023-06-04T07:33:17;94791.66;;;19.45;88.51
6389;BME280;3227;42.654;23.360;2023-06-04T07:35:51;94806.19;;;19.52;87.46
6389;BME280;3227;42.654;23.360;2023-06-04T07:38:18;94805.03;;;19.62;87.59
6389;BME280;3227;42.654;23.360;2023-06-04T07:40:45;94808.72;;;19.55;87.58
6389;BME280;3227;42.654;23.360;2023-06-04T07:43:13;94800.72;;;19.61;87.42
6389;BME280;3227;42.654;23.360;2023-06-04T07:45:39;94802.38;;;19.64;87.87
6389;BME280;3227;42.654;23.360;2023-06-04T07:48:08;94813.38;;;19.73;87.85
6389;BME280;3227;42.654;23.360;2023-06-04T07:50:35;94802.56;;;19.86;86.88
6389;BME280;3227;42.654;23.360;2023-06-04T07:53:03;94803.78;;;20.02;86.54
6389;BME280;3227;42.654;23.360;2023-06-04T07:55:30;94811.00;;;20.20;85.18
6389;BME280;3227;42.654;23.360;2023-06-04T07:57:57;94808.50;;;20.17;85.12
6389;BME280;3227;42.654;23.360;2023-06-04T08:00:24;94813.75;;;20.16;85.12
6389;BME280;3227;42.654;23.360;2023-06-04T08:02:50;94803.31;;;20.17;85.38
6389;BME280;3227;42.654;23.360;2023-06-04T08:05:18;94806.28;;;20.31;85.45
6389;BME280;3227;42.654;23.360;2023-06-04T08:07:46;94761.84;;;20.11;85.59
6389;BME280;3227;42.654;23.360;2023-06-04T08:10:14;94815.53;;;20.41;84.81
6389;BME280;3227;42.654;23.360;2023-06-04T08:12:41;94815.53;;;20.41;84.16
6389;BME280;3227;42.654;23.360;2023-06-04T08:15:08;94810.03;;;20.50;81.50
6389;BME280;3227;42.654;23.360;2023-06-04T08:17:36;94811.56;;;20.56;82.45
6389;BME280;3227;42.654;23.360;2023-06-04T08:20:03;94814.56;;;20.69;82.37
6389;BME280;3227;42.654;23.360;2023-06-04T08:22:31;94817.66;;;20.80;81.33
6389;BME280;3227;42.654;23.360;2023-06-04T08:24:58;94812.47;;;20.80;81.29
6389;BME280;3227;42.654;23.360;2023-06-04T08:27:26;94811.34;;;20.87;81.36
6389;BME280;3227;42.654;23.360;2023-06-04T08:29:53;94815.69;;;20.86;81.79
6389;BME280;3227;42.654;23.360;2023-06-04T08:32:20;94813.34;;;20.79;82.05
6389;BME280;3227;42.654;23.360;2023-06-04T08:34:47;94825.38;;;20.83;82.63
6389;BME280;3227;42.654;23.360;2023-06-04T08:37:14;94825.16;;;20.89;82.08
6389;BME280;3227;42.654;23.360;2023-06-04T08:39:41;94823.56;;;20.85;82.03
6389;BME280;3227;42.654;23.360;2023-06-04T08:42:09;94833.38;;;20.77;82.29
6389;BME280;3227;42.654;23.360;2023-06-04T08:44:46;94842.50;;;20.65;82.60
6389;BME280;3227;42.654;23.360;2023-06-04T08:47:19;94847.16;;;20.56;83.11
6389;BME280;3227;42.654;23.360;2023-06-04T08:49:49;94854.16;;;20.54;83.41
6389;BME280;3227;42.654;23.360;2023-06-04T08:52:17;94837.13;;;20.43;82.94
6389;BME280;3227;42.654;23.360;2023-06-04T08:54:48;94850.41;;;20.36;82.07
6389;BME280;3227;42.654;23.360;2023-06-04T08:57:16;94850.63;;;20.28;81.05
6389;BME280;3227;42.654;23.360;2023-06-04T08:59:46;94854.19;;;20.26;82.03
6389;BME280;3227;42.654;23.360;2023-06-04T09:02:14;94853.06;;;20.34;81.47
6389;BME280;3227;42.654;23.360;2023-06-04T09:04:41;94842.25;;;20.46;79.87
6389;BME280;3227;42.654;23.360;2023-06-04T09:07:10;94846.78;;;20.66;79.06
6389;BME280;3227;42.654;23.360;2023-06-04T09:09:39;94860.72;;;20.90;77.92
6389;BME280;3227;42.654;23.360;2023-06-04T09:12:09;94857.28;;;20.89;74.98
6389;BME280;3227;42.654;23.360;2023-06-04T09:14:36;94855.63;;;20.87;74.96
6389;BME280;3227;42.654;23.360;2023-06-04T09:17:04;94847.53;;;20.95;75.43
6389;BME280;3227;42.654;23.360;2023-06-04T09:19:31;94856.94;;;20.99;74.71
6389;BME280;3227;42.654;23.360;2023-06-04T09:21:59;94853.91;;;20.86;75.80
6389;BME280;3227;42.654;23.360;2023-06-04T09:24:38;94843.22;;;20.94;75.72
6389;BME280;3227;42.654;23.360;2023-06-04T09:27:09;94859.91;;;21.38;74.00
6389;BME280;3227;42.654;23.360;2023-06-04T09:29:37;94828.38;;;21.44;72.38
6389;BME280;3227;42.654;23.360;2023-06-04T09:32:05;94855.16;;;21.72;71.35
6389;BME280;3227;42.654;23.360;2023-06-04T09:34:32;94861.72;;;21.82;71.39
6389;BME280;3227;42.654;23.360;2023-06-04T09:37:00;94824.66;;;21.74;70.06
6389;BME280;3227;42.654;23.360;2023-06-04T09:39:26;94860.31;;;21.97;70.49
6389;BME280;3227;42.654;23.360;2023-06-04T09:42:00;94862.19;;;22.15;69.60
6389;BME280;3227;42.654;23.360;2023-06-04T09:44:28;94836.50;;;22.26;69.24
6389;BME280;3227;42.654;23.360;2023-06-04T09:46:55;94804.56;;;22.20;68.12
6389;BME280;3227;42.654;23.360;2023-06-04T09:49:24;94816.09;;;22.36;67.56
6389;BME280;3227;42.654;23.360;2023-06-04T09:51:51;94796.97;;;22.35;67.81
6389;BME280;3227;42.654;23.360;2023-06-04T09:54:18;94849.31;;;22.74;67.25
6389;BME280;3227;42.654;23.360;2023-06-04T09:56:45;94796.06;;;22.57;66.72
6389;BME280;3227;42.654;23.360;2023-06-04T09:59:13;94847.22;;;22.83;66.78
6389;BME280;3227;42.654;23.360;2023-06-04T10:01:40;94845.53;;;22.82;66.16
6389;BME280;3227;42.654;23.360;2023-06-04T10:04:09;94853.59;;;22.55;67.16
6389;BME280;3227;42.654;23.360;2023-06-04T10:06:39;94849.94;;;22.59;67.85
6389;BME280;3227;42.654;23.360;2023-06-04T10:09:07;94846.53;;;22.79;66.99
6389;BME280;3227;42.654;23.360;2023-06-04T10:11:37;94840.69;;;22.93;66.47
6389;BME280;3227;42.654;23.360;2023-06-04T10:14:10;94831.84;;;23.15;66.30
6389;BME280;3227;42.654;23.360;2023-06-04T10:16:42;94844.81;;;23.19;66.03
6389;BME280;3227;42.654;23.360;2023-06-04T10:19:10;94840.06;;;22.88;65.77
6389;BME280;3227;42.654;23.360;2023-06-04T10:21:39;94776.72;;;22.40;66.53
6389;BME280;3227;42.654;23.360;2023-06-04T10:24:07;94840.28;;;22.61;67.76
6389;BME280;3227;42.654;23.360;2023-06-04T10:26:34;94832.09;;;22.49;68.77
6389;BME280;3227;42.654;23.360;2023-06-04T10:29:02;94842.13;;;22.16;68.56
6389;BME280;3227;42.654;23.360;2023-06-04T10:31:29;94842.94;;;22.18;69.90
6389;BME280;3227;42.654;23.360;2023-06-04T10:33:56;94836.44;;;22.28;68.45
6389;BME280;3227;42.654;23.360;2023-06-04T10:36:24;94837.34;;;22.27;69.51
6389;BME280;3227;42.654;23.360;2023-06-04T10:38:53;94835.09;;;22.18;68.17
6389;BME280;3227;42.654;23.360;2023-06-04T10:41:22;94840.09;;;21.79;70.71
6389;BME280;3227;42.654;23.360;2023-06-04T10:43:50;94842.63;;;22.04;70.78
6389;BME280;3227;42.654;23.360;2023-06-04T10:46:18;94841.47;;;22.32;69.72
6389;BME280;3227;42.654;23.360;2023-06-04T10:48:46;94814.28;;;22.38;68.43
6389;BME280;3227;42.654;23.360;2023-06-04T10:51:15;94838.41;;;22.43;68.06
6389;BME280;3227;42.654;23.360;2023-06-04T10:53:42;94838.56;;;22.18;69.46
6389;BME280;3227;42.654;23.360;2023-06-04T10:56:10;94831.47;;;22.22;69.91
6389;BME280;3227;42.654;23.360;2023-06-04T10:58:37;94833.41;;;22.59;68.88
6389;BME280;3227;42.654;23.360;2023-06-04T11:01:03;94828.41;;;22.74;67.25
6389;BME280;3227;42.654;23.360;2023-06-04T11:03:36;94830.91;;;22.77;67.80
6389;BME280;3227;42.654;23.360;2023-06-04T11:06:14;94832.91;;;22.91;67.53
6389;BME280;3227;42.654;23.360;2023-06-04T11:08:42;94846.47;;;22.59;67.50
6389;BME280;3227;42.654;23.360;2023-06-04T11:11:14;94810.53;;;22.44;67.97
6389;BME280;3227;42.654;23.360;2023-06-04T11:13:41;94806.38;;;22.39;68.78
6389;BME280;3227;42.654;23.360;2023-06-04T11:16:15;94829.22;;;22.76;68.07
6389;BME280;3227;42.654;23.360;2023-06-04T11:18:43;94839.66;;;22.97;66.98
6389;BME280;3227;42.654;23.360;2023-06-04T11:21:11;94843.09;;;23.18;67.48
6389;BME280;3227;42.654;23.360;2023-06-04T11:23:40;94844.50;;;23.06;66.83
6389;BME280;3227;42.654;23.360;2023-06-04T11:26:08;94825.78;;;23.15;67.79
6389;BME280;3227;42.654;23.360;2023-06-04T11:28:36;94836.06;;;22.99;66.59
6389;BME280;3227;42.654;23.360;2023-06-04T11:31:03;94845.84;;;23.14;66.77
6389;BME280;3227;42.654;23.360;2023-06-04T11:33:41;94832.19;;;23.08;65.29
6389;BME280;3227;42.654;23.360;2023-06-04T11:36:09;94844.50;;;23.06;65.78
6389;BME280;3227;42.654;23.360;2023-06-04T11:38:35;94832.06;;;22.91;65.57
6389;BME280;3227;42.654;23.360;2023-06-04T11:41:03;94836.72;;;22.84;67.23
6389;BME280;3227;42.654;23.360;2023-06-04T11:43:32;94833.69;;;22.73;65.91
6389;BME280;3227;42.654;23.360;2023-06-04T11:46:05;94796.84;;;22.38;67.04
6389;BME280;3227;42.654;23.360;2023-06-04T11:48:32;94779.28;;;22.42;67.40
6389;BME280;3227;42.654;23.360;2023-06-04T11:51:05;94837.66;;;22.61;66.87
6389;BME280;3227;42.654;23.360;2023-06-04T11:53:33;94836.38;;;22.92;66.78
6389;BME280;3227;42.654;23.360;2023-06-04T11:56:00;94839.31;;;22.84;65.26
6389;BME280;3227;42.654;23.360;2023-06-04T11:58:28;94823.50;;;22.47;66.53
6389;BME280;3227;42.654;23.360;2023-06-04T12:00:55;94828.44;;;22.53;67.74
6389;BME280;3227;42.654;23.360;2023-06-04T12:03:34;94828.56;;;22.50;67.21
6389;BME280;3227;42.654;23.360;2023-06-04T12:06:17;94826.28;;;22.42;68.17
6389;BME280;3227;42.654;23.360;2023-06-04T12:08:49;94832.41;;;22.41;68.83
6389;BME280;3227;42.654;23.360;2023-06-04T12:11:27;94797.75;;;21.94;69.29
6389;BME280;3227;42.654;23.360;2023-06-04T12:13:55;94833.22;;;21.99;69.86
6389;BME280;3227;42.654;23.360;2023-06-04T12:16:22;94849.22;;;21.90;70.45
6389;BME280;3227;42.654;23.360;2023-06-04T12:18:50;94855.84;;;21.76;71.36
6389;BME280;3227;42.654;23.360;2023-06-04T12:21:20;94850.63;;;21.54;72.10
6389;BME280;3227;42.654;23.360;2023-06-04T12:23:47;94842.06;;;21.74;72.58
6389;BME280;3227;42.654;23.360;2023-06-04T12:26:26;94848.88;;;21.76;71.52
6389;BME280;3227;42.654;23.360;2023-06-04T12:29:01;94855.59;;;21.60;72.71
6389;BME280;3227;42.654;23.360;2023-06-04T12:31:28;94852.19;;;21.35;74.47
6389;BME280;3227;42.654;23.360;2023-06-04T12:34:00;94793.44;;;21.01;73.88
6389;BME280;3227;42.654;23.360;2023-06-04T12:36:27;94845.13;;;21.13;74.98
6389;BME280;3227;42.654;23.360;2023-06-04T12:38:58;94820.56;;;20.96;76.12
6389;BME280;3227;42.654;23.360;2023-06-04T12:41:25;94844.94;;;21.19;76.79
6389;BME280;3227;42.654;23.360;2023-06-04T12:43:52;94848.81;;;21.33;74.50
6389;BME280;3227;42.654;23.360;2023-06-04T12:46:19;94838.09;;;21.40;74.26
6389;BME280;3227;42.654;23.360;2023-06-04T12:48:47;94845.78;;;21.43;74.59
6389;BME280;3227;42.654;23.360;2023-06-04T12:51:15;94844.50;;;21.32;73.38
6389;BME280;3227;42.654;23.360;2023-06-04T12:53:42;94847.25;;;21.27;73.46
6389;BME280;3227;42.654;23.360;2023-06-04T12:56:09;94847.22;;;21.29;73.26
6389;BME280;3227;42.654;23.360;2023-06-04T12:58:36;94846.13;;;21.34;73.46
6389;BME280;3227;42.654;23.360;2023-06-04T13:01:04;94853.47;;;21.24;74.18
6389;BME280;3227;42.654;23.360;2023-06-04T13:03:31;94845.16;;;21.37;75.37
6389;BME280;3227;42.654;23.360;2023-06-04T13:05:58;94849.25;;;21.44;75.24
6389;BME280;3227;42.654;23.360;2023-06-04T13:08:26;94856.34;;;21.40;73.19
6389;BME280;3227;42.654;23.360;2023-06-04T13:10:53;94841.47;;;21.42;74.19
6389;BME280;3227;42.654;23.360;2023-06-04T13:13:20;94848.28;;;21.46;72.83